Auckland International Airport
NZAA : now visible

Airfield :











YOU CAN JOIN US ON...

 
LOGIN :

Register | Disclaimer

   EN    FR    IT 

 









Legend :    VFR   Marginal VFR   IFR   Intensive IFR   Very Intensive IFR
Visi :
Ceiling :
>= 8 km
>= 3000ft
5 to 8 km
1000 to 3000 ft
1500m to 5 km
500 to 1000 ft
800 to 1500m
200 to 500 ft
< 800m
< 200 ft
Symbols :   Thunderstorms  Fog  Heavy snow  Heavy precipitations  Wind > 20 kt







- Airport Elevation : 23 ft
- IATA code : AKL


NZAA - Auckland International

CURRENT METAR :
  • 161900Z AUTO 25011KT 9999 NCD 12/07 Q1016 TEMPO FM2000Z 6000 SHRA

EXPIRED METARs :
  • 161830Z AUTO 25010KT 9999 -SHRA SCT036/// BKN050/// BKN060/// 11/09 Q1016 NOSIG
  • 161800Z AUTO 24010KT 9999 FEW065/// 12/08 Q1016 TEMPO 7000 SHRA
  • 161730Z AUTO 25010KT 9999 DZ SCT037/// BKN060/// 12/08 Q1016 TEMPO 7000 SHRA
  • 161700Z AUTO 25010KT 9999 FEW038/// SCT048/// 12/08 Q1016 TEMPO 7000 SHRA
  • 161630Z AUTO 26009KT 9999 FEW039/// SCT065/// 12/08 Q1016 TEMPO 7000 SHRA
  • 161600Z AUTO 25008KT 9999 FEW070/// 12/08 Q1016 TEMPO 7000 SHRA

TAF TAF NZAA
Valid from the 16 at 18:00 until the 17 at 18:00 UTC


161701Z 1618/1718 24015KT 9999 -SHRA FEW020 SCT025
TEMPO 1618/1712 6000 SHRA
NZZC FIR / Oceania



MET'MAP, your aeronautical weather chart ! - Copyright ORBIFLY December 2007 - Disclaimer

ORBIFLY MET'MAP TEAM :

Programming & Development : Alexandra Zaïnal
Concept & Development : Baudouin d'Aumeries
Co-Development & Prog : Marc-Olivier Méhu
Technical & hardware support : Manuel Goepfert

Contact : metmap@orbifly.com




SOURCES & CREDITS :

   NOAA       Earth
Advisory